• Join FlightAware (Why Join?)
  • Login
  • US Flag 
08:19PM EDT


 

Airport Tracker/Info


-or-


 

Live Flight TrackerFlight Track Log ✈ DAL2128 ✈ 07-Jul-2013 ✈ KDTW - KMCO

Flight Track Log - Related Links

Times and Time Zones

All times are in EDT time to prevent confusion due to time zone crossing. See the DAL2128 flight status page for this flight to view local times or setup timezone preferences in your user account.

Time Position Orientation Groundspeed Altitude Reporting Facility
EDT Latitude Longitude Course Direction KTS MPH feet Rate Location/Type
10:41AM 42.1994 -83.3608 202° Southwest 171 197 1,500  Level Cleveland Center
10:42AM 42.1419 -83.4089 212° Southwest 253 291 3,800 2,580 Climbing Cleveland Center
10:43AM 42.0825 -83.4564 211° Southwest 272 313 6,900 3,000 Climbing Cleveland Center
10:44AM 41.7564 -83.2728 180° South  Level Estimated
10:44AM 41.9889 -83.4467 176° South 305 351 10,400  Level Cleveland Center
10:45AM 41.6424 -83.2528 180° South  Level Estimated
10:45AM 41.9061 -83.4208 167° South 328 377 11,700  Level Cleveland Center
10:46AM 41.5283 -83.2329 202° Southwest  Level Estimated
10:46AM 41.7922 -83.3850 167° South 352 405 13,800  Level Cleveland Center
10:47AM 41.6847 -83.3497 166° South 388 447 16,100 2,100 Climbing Cleveland Center
10:48AM 41.5725 -83.3394 176° South 404 465 18,100 1,860 Climbing Cleveland Center
10:49AM 41.4594 -83.3539 185° South 409 471 19,900 1,620 Climbing Cleveland Center
10:50AM 41.3381 -83.3681 185° South 421 484 21,400 1,860 Climbing Cleveland Center
10:52AM 41.1167 -83.3875 184° South 419 482 25,600 1,800 Climbing Indianapolis Center
10:53AM 41.0028 -83.3992 184° South 408 470 27,000 660 Climbing Indianapolis Center
10:54AM 40.8908 -83.4122 185° South 402 463 27,000  Level Indianapolis Center
10:55AM 40.7600 -83.4258 185° South 408 470 27,000  Level Indianapolis Center
10:56AM 40.6475 -83.4369 184° South 404 465 27,000  Level Indianapolis Center
10:57AM 40.5350 -83.4497 185° South 402 463 27,000  Level Indianapolis Center
10:58AM 40.4200 -83.4606 184° South 409 471 27,000  Level Indianapolis Center
10:59AM 40.3083 -83.4728 185° South 400 460 27,000  Level Indianapolis Center
11:00AM 40.1958 -83.4844 185° South 402 463 27,000  Level Indianapolis Center
11:01AM 40.0861 -83.4953 184° South 394 453 27,000  Level Indianapolis Center
11:02AM 39.9772 -83.5069 185° South 390 449 27,000  Level Indianapolis Center
11:03AM 39.8714 -83.5175 184° South 394 453 27,000  Level Indianapolis Center
11:04AM 39.7447 -83.5297 184° South 397 457 27,000  Level Indianapolis Center
11:05AM 39.6378 -83.5400 184° South 387 445 27,000  Level Indianapolis Center
11:06AM 39.5278 -83.5514 185° South 389 448 27,000  Level Indianapolis Center
11:08AM 39.4194 -83.5622 184° South 389 448 27,000  Level Indianapolis Center
11:09AM 39.3103 -83.5728 184° South 389 448 27,000  Level Indianapolis Center
11:10AM 39.2000 -83.5833 184° South 393 452 27,000  Level Indianapolis Center
11:11AM 39.0703 -83.5981 185° South 397 457 27,000  Level Indianapolis Center
11:12AM 38.9586 -83.6081 184° South 397 457 27,000  Level Indianapolis Center
11:13AM 38.8464 -83.6183 184° South 400 460 27,000  Level Indianapolis Center
11:14AM 38.7344 -83.6303 185° South 400 460 27,000  Level Indianapolis Center
11:15AM 38.6300 -83.6414 185° South 400 460 27,000  Level Indianapolis Center
11:16AM 38.5011 -83.6522 184° South 399 459 27,000  Level Indianapolis Center
11:17AM 38.3889 -83.6639 185° South 403 464 27,000  Level Indianapolis Center
11:18AM 38.2761 -83.6744 184° South 406 467 27,000  Level Indianapolis Center
11:19AM 38.1647 -83.6853 184° South 402 463 27,000  Level Indianapolis Center
11:20AM 38.0547 -83.6950 184° South 396 456 27,000  Level Indianapolis Center
11:21AM 37.9442 -83.7061 185° South 398 458 27,000  Level Indianapolis Center
11:22AM 37.8347 -83.7175 185° South 396 456 27,000  Level Indianapolis Center
11:23AM 37.7061 -83.7281 184° South 398 458 27,000  Level Indianapolis Center
11:24AM 37.5939 -83.7389 184° South 401 461 27,000  Level Indianapolis Center
11:25AM 37.4833 -83.7503 185° South 401 461 27,000  Level Indianapolis Center
11:26AM 37.3717 -83.7617 185° South 402 463 27,000  Level Indianapolis Center
11:27AM 37.2603 -83.7714 184° South 403 464 27,000  Level Indianapolis Center
11:28AM 37.1486 -83.7825 185° South 403 464 27,000  Level Indianapolis Center
11:29AM 37.0169 -83.7931 184° South 407 468 27,000  Level Indianapolis Center
11:30AM 36.9031 -83.8053 185° South 409 471 27,000  Level Indianapolis Center
11:31AM 36.7900 -83.8153 184° South 409 471 27,000  Level Indianapolis Center
11:32AM 36.6758 -83.7983 173° South 419 482 27,000  Level Indianapolis Center
11:33AM 36.5731 -83.7333 153° Southeast 426 490 27,000  Level Indianapolis Center
11:34AM 36.4700 -83.6164 138° Southeast 442 509 27,000  Level Indianapolis Center
11:35AM 36.3800 -83.5142 138° Southeast 441 507 27,000  Level Indianapolis Center
11:36AM 36.2911 -83.4094 136° Southeast 433 498 27,000  Level Indianapolis Center
11:37AM 36.2400 -83.3617 143° Southeast 443 510 27,000  Level Atlanta Center
11:38AM 36.1272 -83.3267 166° South 418 481 27,000  Level Atlanta Center
11:39AM 36.0103 -83.3072 172° South 418 481 27,000  Level Atlanta Center
11:40AM 35.8850 -83.2878 173° South 418 481 27,000  Level Atlanta Center
11:41AM 35.7700 -83.2633 170° South 418 481 27,000  Level Atlanta Center
11:42AM 35.6531 -83.2439 172° South 424 488 27,000 600 Level Atlanta Center
11:43AM 35.5444 -83.2219 171° South 429 494 28,200 1,200 Climbing Atlanta Center
11:44AM 35.4278 -83.2256 181° South 419 482 29,400 1,200 Climbing Atlanta Center
11:45AM 35.3106 -83.2064 172° South 419 482 30,700 780 Climbing Atlanta Center
11:46AM 35.2083 -83.1872 171° South 424 488 31,000 120 Climbing Atlanta Center
11:47AM 35.0808 -83.1606 170° South 424 488 31,000  Level Atlanta Center
11:48AM 34.9639 -83.1392 171° South 424 488 31,000  Level Atlanta Center
11:49AM 34.8300 -83.1128 171° South 436 502 31,000  Level Atlanta Center
11:50AM 34.7089 -83.0886 171° South 442 509 31,000  Level Atlanta Center
11:51AM 34.5939 -83.0672 171° South 442 509 31,000  Level Atlanta Center
11:52AM 34.4831 -83.0508 173° South 442 509 31,000  Level Atlanta Center
11:53AM 34.3639 -83.0247 170° South 448 516 31,000  Level Atlanta Center
11:54AM 34.2406 -83.0011 171° South 448 516 31,000  Level Atlanta Center
11:55AM 34.1194 -82.9800 172° South 448 516 31,000  Level Atlanta Center
11:56AM 33.9961 -82.9564 171° South 443 510 31,000  Level Atlanta Center
11:57AM 33.8747 -82.9331 171° South 451 519 31,000  Level Atlanta Center
11:58AM 33.7411 -82.9097 172° South 445 512 31,000 180 Level Atlanta Center
11:59AM 33.6197 -82.8864 171° South 445 512 31,400 480 Climbing Atlanta Center
12:00PM 33.4944 -82.8631 171° South 450 518 32,000 300 Climbing Atlanta Center
12:01PM 33.3731 -82.8372 170° South 444 511 32,000  Level Atlanta Center
12:02PM 33.2600 -82.8214 173° South 449 517 32,000  Level Atlanta Center
12:03PM 33.1389 -82.7983 171° South 449 517 32,000  Level Atlanta Center
12:04PM 33.0133 -82.7778 172° South 449 517 32,000  Level Atlanta Center
12:05PM 32.8878 -82.7525 170° South 449 517 32,000  Level Atlanta Center
12:06PM 32.7644 -82.7319 172° South 449 517 32,000  Level Atlanta Center
12:07PM 32.6369 -82.7069 171° South 454 522 32,000  Level Atlanta Center
12:09PM 32.3625 -82.6539 171° South 455 524 32,000  Level Jacksonville Center
12:10PM 32.2353 -82.6297 171° South 455 524 32,000  Level Jacksonville Center
12:11PM 32.1078 -82.6106 173° South 465 535 32,000  Level Jacksonville Center
12:12PM 31.9969 -82.5889 171° South 465 535 32,000  Level Jacksonville Center
12:13PM 31.8697 -82.5647 171° South 465 535 32,000  Level Jacksonville Center
12:14PM 31.7422 -82.5433 172° South 465 535 32,000  Level Jacksonville Center
12:15PM 31.6189 -82.5217 171° South 465 535 32,000  Level Jacksonville Center
12:16PM 31.4917 -82.5003 172° South 465 535 32,000  Level Jacksonville Center
12:17PM 31.3661 -82.4717 169° South 465 535 32,000  Level Jacksonville Center
12:18PM 31.2408 -82.4503 172° South 460 529 32,000  Level Jacksonville Center
12:19PM 31.1133 -82.4242 170° South 460 529 32,000  Level Jacksonville Center
12:20PM 30.9881 -82.4006 171° South 465 535 32,000  Level Jacksonville Center
12:21PM 30.8667 -82.3747 170° South 459 528 32,000  Level Jacksonville Center
12:22PM 30.7436 -82.3511 171° South 454 522 32,000  Level Jacksonville Center
12:23PM 30.6203 -82.3253 170° South 454 522 32,000  Level Jacksonville Center
12:24PM 30.4844 -82.2925 168° South 454 522 32,000 -180 Level Jacksonville Center
12:25PM 30.3611 -82.2667 170° South 446 513 31,700 -900 Descending Jacksonville Center
12:26PM 30.2356 -82.2411 170° South 446 513 30,300 -1,320 Descending Jacksonville Center
12:27PM 30.1122 -82.2178 171° South 451 519 29,100 -1,200 Descending Jacksonville Center
12:28PM 29.9869 -82.1781 165° South 451 519 27,900 -1,080 Descending Jacksonville Center
12:29PM 29.8656 -82.1333 162° South 451 519 27,000 -900 Descending Jacksonville Center
12:30PM 29.7483 -82.0864 161° South 456 525 26,200 -780 Descending Jacksonville Center
12:31PM 29.6269 -82.0444 163° South 456 525 25,500 -1,140 Descending Jacksonville Center
12:32PM 29.5139 -82.0072 164° South 446 513 24,000 -1,800 Descending Jacksonville Center
12:33PM 29.4094 -81.9700 163° South 424 488 22,000 -2,460 Descending Jacksonville Center
12:34PM 29.3089 -81.9328 162° South 396 456 19,100 -2,580 Descending Jacksonville Center
12:35PM 29.2106 -81.8958 162° South 378 435 16,900 -2,400 Descending Jacksonville Center
12:36PM 29.1225 -81.8633 162° South 360 414 14,300 -2,400 Descending Jacksonville Center
12:37PM 29.0325 -81.8333 164° South 348 400 12,100 -1,200 Descending Jacksonville Center
12:38PM 28.9589 -81.7797 147° Southeast 311 358 12,000 -660 Descending Jacksonville Center
12:39PM 28.9061 -81.7067 130° Southeast 301 346 10,800 -1,380 Descending Jacksonville Center
12:40PM 28.8575 -81.6361 128° Southeast 288 331 9,300 -1,500 Descending Jacksonville Center
12:40PM 28.8333 -81.6000 127° Southeast 277 319 8,500 -1,320 Descending Orlando TRACON
12:42PM 28.7833 -81.5167 124° Southeast 250 288 7,200 -720 Descending Orlando TRACON
12:43PM 28.7500 -81.4667 127° Southeast 220 253 7,000 -900 Descending Orlando TRACON
12:44PM 28.7167 -81.4167 127° Southeast 220 253 5,500 -1,500 Descending Orlando TRACON
12:45PM 28.6500 -81.3833 156° South 216 249 4,000 -1,500 Descending Orlando TRACON